Great Falls, MT (59401)

12:30 AM MDT on August 25, 2016 (GMT -0600)
Great Falls South SIde | | Change Station

Elev 3399 ft 47.50 °N, 111.27 °W | Updated 16 seconds ago

Overcast
Overcast
53.0 °F
Feels Like 53.0 °F
N
0.0
Wind Variable Wind from North
Gusts 0.0 mph

Today
High -- | Low -- °F
--% Chance of Precip.
Yesterday
High -- | Low -- °F
Precip. -- in
Pressure 30.31 in
Visibility 10.0 miles
Clouds Overcast 8500 ft
Dew Point 44 °F
Humidity 72%
Rainfall 0.00 in
Snow Depth Not available.
6:35 AM 8:17 PM
Waning Gibbous, 49% visible
METAR KGTF 250553Z 17004KT 10SM OVC085 12/05 A3033 RMK AO2 SLP263 T01220050 10167 20106 58003
Pressure 30.31 in
Visibility 10.0 miles
Clouds Overcast 8500 ft
Dew Point 44 °F
Humidity 72%
Rainfall 0.00 in
Snow Depth Not available.
6:35 AM 8:17 PM
Waning Gibbous, 49% visible
METAR KGTF 250553Z 17004KT 10SM OVC085 12/05 A3033 RMK AO2 SLP263 T01220050 10167 20106 58003

10-Day Weather Forecast

Almanac

Astronomy

Aug. 25, 2016 Rise Set
Actual Time
Civil Twilight
Nautical Twilight
Astronomical Twilight
Moon
Length of Visible Light
Length of Day
Tomorrow will be .
, % of the Moon is Illuminated

Today's Extremes

State Highs State Lows

Community

WunderPhotos

Upload Photos

1,934,803 photos uploaded!

WunderBlog® & News

Nearby

Air Quality

  Air Quality AQ Index Pollutant
Not available.

Snow Depth

Station Depth Elevation

Earthquake Activity

City Distance Mag. Time & Date
Minimum magnitude displayed is 2.5.

Coastal Water Temperatures

Place Temperature

Stations

Nearby Weather Stations

Station Location Temp. Windchill Dew Point Humidity Wind Precip. Elev Updated Type
                   

Watches & Warnings

There are currently no watches in effect.